Bogota, Colombia
Current Conditions -  °F | °C
As of 12:00 AM on Wednesday 26 Nov 2014 (Local Time) from SKBO Reporting Station
Few Clouds Few Clouds  
Wind Chill:   Ceiling: Unl
Heat Index:   Visibility: 6mi
Dew Point:   Wind: 2mph
Humidity: 93%   Direction: NA
Pressure: 30.3"   Gusts: NA
Location:  4.63°N, 74.09°W
Report Text: SKBO 260500Z VRB02KT 9999 FEW023 09/08 A3030
Loading
Personal Weather Stations






























Interactive Weather Map New forecast layout! Learn more

10-Day Weather Forecast

Advertisements
Track Severe Weather on mobile